This is the latest recevied weather packets stored in our database for station/object SM6KNE. If no packets are shown the sender has not sent any weather packets the latest 10 day(s).
| Time | Temp. | Humidity | Pressure | Rain* | Wind** | Luminosity | Snow |
|---|---|---|---|---|---|---|---|
| 1777785323 | 10° C | 88% | 1010.1 hPa | - | - | - | - |
| 1777784145 | 10° C | 87% | 1010.1 hPa | - | - | - | - |
| 1777782325 | 10° C | 87% | 1009.1 hPa | - | - | - | - |
| 1777781124 | 10.56° C | 88% | 1010.1 hPa | - | - | - | - |
| 1777778723 | 10.56° C | 84% | 1009.1 hPa | - | - | - | - |
| 1777776328 | 10.56° C | 83% | 1009.3 hPa | - | - | - | - |
| 1777772744 | 11.11° C | 79% | 1010.1 hPa | - | - | - | - |
| 1777772120 | 11.11° C | 78% | 1010.1 hPa | - | - | - | - |
| 1777770317 | 11.11° C | 77% | 1010.1 hPa | - | - | - | - |
| 1777768516 | 11.11° C | 76% | 1010.1 hPa | - | - | - | - |
| 1777767921 | 11.11° C | 75% | 1010.1 hPa | - | - | - | - |
| 1777764944 | 11.11° C | 73% | 1010.1 hPa | 0 mm | - | - | - |
| 1777763123 | 11.67° C | 73% | 1010.1 hPa | 0 mm | - | - | - |
| 1777761924 | 11.11° C | 72% | 1010.1 hPa | 0 mm | - | - | - |
| 1777759527 | 11.11° C | 70% | 1011.1 hPa | 0 mm | - | - | - |
| 1777758328 | 11.11° C | 69% | 1011.1 hPa | 0 mm | - | - | - |
| 1777757724 | 11.67° C | 69% | 1011.1 hPa | 0 mm | - | - | - |
| 1777746323 | 16.11° C | 55% | 1011.1 hPa | 0 mm | - | - | - |
| 1777737923 | 23.89° C | 34% | 1011.1 hPa | 0 mm | - | - | - |
| 1777737324 | 25° C | 32% | 1011.1 hPa | 0 mm | - | - | - |
| 1777736723 | 24.44° C | 33% | 1011.1 hPa | 0 mm | - | - | - |
| 1777734326 | 25.56° C | 32% | 1012.1 hPa | 0 mm | - | - | - |
| 1777731924 | 26.67° C | 33% | 1012.9 hPa | 0 mm | - | - | - |
| 1777731324 | 26.67° C | 33% | 1013.1 hPa | 0 mm | - | - | - |
| 1777730723 | 25.56° C | 33% | 1013.1 hPa | 0 mm | - | - | - |
* Rain since midnight (hover to see other rain measurements)
** Current wind speed in m/s (hover to see current wind gust speed)